sensor_id;sensor_type;location;lat;lon;timestamp;pressure;altitude;pressure_sealevel;temperature
19644;BMP180;9970;-36.854;174.870;2023-04-12T00:02:28;100188.00;;;19.70
19644;BMP180;9970;-36.854;174.870;2023-04-12T00:05:03;100186.00;;;19.70
19644;BMP180;9970;-36.854;174.870;2023-04-12T00:07:36;100180.00;;;19.70
19644;BMP180;9970;-36.854;174.870;2023-04-12T00:10:13;100182.00;;;19.70
19644;BMP180;9970;-36.854;174.870;2023-04-12T00:12:46;100178.00;;;19.80
19644;BMP180;9970;-36.854;174.870;2023-04-12T00:15:21;100172.00;;;19.80
19644;BMP180;9970;-36.854;174.870;2023-04-12T00:17:54;100176.00;;;19.80
19644;BMP180;9970;-36.854;174.870;2023-04-12T00:20:27;100175.00;;;19.80
19644;BMP180;9970;-36.854;174.870;2023-04-12T00:23:01;100165.00;;;19.80
19644;BMP180;9970;-36.854;174.870;2023-04-12T00:25:33;100158.00;;;19.80
19644;BMP180;9970;-36.854;174.870;2023-04-12T00:28:07;100154.00;;;19.90
19644;BMP180;9970;-36.854;174.870;2023-04-12T00:30:40;100156.00;;;19.90
19644;BMP180;9970;-36.854;174.870;2023-04-12T00:33:13;100168.00;;;19.90
19644;BMP180;9970;-36.854;174.870;2023-04-12T00:35:46;100151.00;;;19.90
19644;BMP180;9970;-36.854;174.870;2023-04-12T00:38:19;100146.00;;;19.90
19644;BMP180;9970;-36.854;174.870;2023-04-12T00:40:53;100149.00;;;19.90
19644;BMP180;9970;-36.854;174.870;2023-04-12T00:43:26;100153.00;;;19.90
19644;BMP180;9970;-36.854;174.870;2023-04-12T00:45:59;100151.00;;;19.90
19644;BMP180;9970;-36.854;174.870;2023-04-12T00:48:33;100152.00;;;19.90
19644;BMP180;9970;-36.854;174.870;2023-04-12T00:51:09;100150.00;;;19.90
19644;BMP180;9970;-36.854;174.870;2023-04-12T00:53:42;100153.00;;;19.90
19644;BMP180;9970;-36.854;174.870;2023-04-12T00:56:15;100121.00;;;19.90
19644;BMP180;9970;-36.854;174.870;2023-04-12T00:58:50;100154.00;;;19.80
19644;BMP180;9970;-36.854;174.870;2023-04-12T01:01:22;100138.00;;;19.80
19644;BMP180;9970;-36.854;174.870;2023-04-12T01:03:56;100135.00;;;19.80
19644;BMP180;9970;-36.854;174.870;2023-04-12T01:06:57;100132.00;;;19.80
19644;BMP180;9970;-36.854;174.870;2023-04-12T01:15:21;100098.00;;;20.00
19644;BMP180;9970;-36.854;174.870;2023-04-12T01:18:11;100103.00;;;20.00
19644;BMP180;9970;-36.854;174.870;2023-04-12T01:20:41;100088.00;;;20.00
19644;BMP180;9970;-36.854;174.870;2023-04-12T01:23:30;100092.00;;;20.10
19644;BMP180;9970;-36.854;174.870;2023-04-12T01:28:51;100095.00;;;20.20
19644;BMP180;9970;-36.854;174.870;2023-04-12T01:31:25;100099.00;;;20.20
19644;BMP180;9970;-36.854;174.870;2023-04-12T01:34:01;100089.00;;;20.30
19644;BMP180;9970;-36.854;174.870;2023-04-12T01:36:35;100089.00;;;20.40
19644;BMP180;9970;-36.854;174.870;2023-04-12T01:39:09;100092.00;;;20.40
19644;BMP180;9970;-36.854;174.870;2023-04-12T01:41:42;100086.00;;;20.40
19644;BMP180;9970;-36.854;174.870;2023-04-12T01:44:19;100095.00;;;20.40
19644;BMP180;9970;-36.854;174.870;2023-04-12T01:46:52;100090.00;;;20.40
19644;BMP180;9970;-36.854;174.870;2023-04-12T01:49:26;100084.00;;;20.40
19644;BMP180;9970;-36.854;174.870;2023-04-12T01:52:02;100070.00;;;20.40
19644;BMP180;9970;-36.854;174.870;2023-04-12T01:54:37;100058.00;;;20.40
19644;BMP180;9970;-36.854;174.870;2023-04-12T01:57:11;100077.00;;;20.40
19644;BMP180;9970;-36.854;174.870;2023-04-12T01:59:45;100079.00;;;20.40
19644;BMP180;9970;-36.854;174.870;2023-04-12T02:02:19;100064.00;;;20.40
19644;BMP180;9970;-36.854;174.870;2023-04-12T02:04:53;100065.00;;;20.40
19644;BMP180;9970;-36.854;174.870;2023-04-12T02:07:30;100062.00;;;20.40
19644;BMP180;9970;-36.854;174.870;2023-04-12T02:10:07;100051.00;;;20.40
19644;BMP180;9970;-36.854;174.870;2023-04-12T02:12:41;100046.00;;;20.40
19644;BMP180;9970;-36.854;174.870;2023-04-12T02:15:14;100048.00;;;20.40
19644;BMP180;9970;-36.854;174.870;2023-04-12T02:17:47;100057.00;;;20.40
19644;BMP180;9970;-36.854;174.870;2023-04-12T02:20:21;100066.00;;;20.40
19644;BMP180;9970;-36.854;174.870;2023-04-12T02:22:57;100053.00;;;20.40
19644;BMP180;9970;-36.854;174.870;2023-04-12T02:25:31;100050.00;;;20.40
19644;BMP180;9970;-36.854;174.870;2023-04-12T02:28:06;100069.00;;;20.40
19644;BMP180;9970;-36.854;174.870;2023-04-12T02:30:39;100067.00;;;20.40
19644;BMP180;9970;-36.854;174.870;2023-04-12T02:33:12;100084.00;;;20.30
19644;BMP180;9970;-36.854;174.870;2023-04-12T02:35:46;100077.00;;;20.30
19644;BMP180;9970;-36.854;174.870;2023-04-12T02:38:19;100066.00;;;20.30
19644;BMP180;9970;-36.854;174.870;2023-04-12T02:40:53;100064.00;;;20.30
19644;BMP180;9970;-36.854;174.870;2023-04-12T02:43:26;100067.00;;;20.30
19644;BMP180;9970;-36.854;174.870;2023-04-12T02:45:59;100078.00;;;20.30
19644;BMP180;9970;-36.854;174.870;2023-04-12T02:48:32;100069.00;;;20.30
19644;BMP180;9970;-36.854;174.870;2023-04-12T02:51:05;100069.00;;;20.40
19644;BMP180;9970;-36.854;174.870;2023-04-12T02:53:39;100068.00;;;20.30
19644;BMP180;9970;-36.854;174.870;2023-04-12T02:56:11;100096.00;;;20.30
19644;BMP180;9970;-36.854;174.870;2023-04-12T02:58:44;100104.00;;;20.30
19644;BMP180;9970;-36.854;174.870;2023-04-12T03:01:17;100105.00;;;20.30
19644;BMP180;9970;-36.854;174.870;2023-04-12T03:03:50;100110.00;;;20.30
19644;BMP180;9970;-36.854;174.870;2023-04-12T03:06:24;100111.00;;;20.30
19644;BMP180;9970;-36.854;174.870;2023-04-12T03:08:57;100121.00;;;20.30
19644;BMP180;9970;-36.854;174.870;2023-04-12T03:11:30;100116.00;;;20.30
19644;BMP180;9970;-36.854;174.870;2023-04-12T03:14:04;100112.00;;;20.30
19644;BMP180;9970;-36.854;174.870;2023-04-12T03:16:37;100110.00;;;20.30
19644;BMP180;9970;-36.854;174.870;2023-04-12T03:19:09;100114.00;;;20.30
19644;BMP180;9970;-36.854;174.870;2023-04-12T03:21:44;100113.00;;;20.30
19644;BMP180;9970;-36.854;174.870;2023-04-12T03:24:17;100110.00;;;20.30
19644;BMP180;9970;-36.854;174.870;2023-04-12T03:26:50;100099.00;;;20.30
19644;BMP180;9970;-36.854;174.870;2023-04-12T03:29:23;100093.00;;;20.30
19644;BMP180;9970;-36.854;174.870;2023-04-12T03:31:56;100085.00;;;20.30
19644;BMP180;9970;-36.854;174.870;2023-04-12T03:34:30;100085.00;;;20.30
19644;BMP180;9970;-36.854;174.870;2023-04-12T03:37:06;100082.00;;;20.30
19644;BMP180;9970;-36.854;174.870;2023-04-12T03:39:39;100082.00;;;20.30
19644;BMP180;9970;-36.854;174.870;2023-04-12T03:42:11;100080.00;;;20.30
19644;BMP180;9970;-36.854;174.870;2023-04-12T03:44:45;100095.00;;;20.30
19644;BMP180;9970;-36.854;174.870;2023-04-12T03:47:19;100093.00;;;20.30
19644;BMP180;9970;-36.854;174.870;2023-04-12T03:49:53;100097.00;;;20.30
19644;BMP180;9970;-36.854;174.870;2023-04-12T03:52:27;100091.00;;;20.20
19644;BMP180;9970;-36.854;174.870;2023-04-12T03:54:59;100087.00;;;20.20
19644;BMP180;9970;-36.854;174.870;2023-04-12T03:57:36;100084.00;;;20.20
19644;BMP180;9970;-36.854;174.870;2023-04-12T04:00:10;100085.00;;;20.20
19644;BMP180;9970;-36.854;174.870;2023-04-12T04:02:43;100080.00;;;20.30
19644;BMP180;9970;-36.854;174.870;2023-04-12T04:05:17;100096.00;;;20.30
19644;BMP180;9970;-36.854;174.870;2023-04-12T04:07:50;100084.00;;;20.30
19644;BMP180;9970;-36.854;174.870;2023-04-12T04:10:26;100082.00;;;20.30
19644;BMP180;9970;-36.854;174.870;2023-04-12T04:12:59;100074.00;;;20.30
19644;BMP180;9970;-36.854;174.870;2023-04-12T04:15:32;100077.00;;;20.30
19644;BMP180;9970;-36.854;174.870;2023-04-12T04:18:05;100085.00;;;20.30
19644;BMP180;9970;-36.854;174.870;2023-04-12T04:20:38;100086.00;;;20.30
19644;BMP180;9970;-36.854;174.870;2023-04-12T04:23:12;100083.00;;;20.30
19644;BMP180;9970;-36.854;174.870;2023-04-12T04:25:45;100075.00;;;20.30
19644;BMP180;9970;-36.854;174.870;2023-04-12T04:28:19;100080.00;;;20.30
19644;BMP180;9970;-36.854;174.870;2023-04-12T04:30:52;100080.00;;;20.20
19644;BMP180;9970;-36.854;174.870;2023-04-12T04:33:25;100068.00;;;20.20
19644;BMP180;9970;-36.854;174.870;2023-04-12T04:35:58;100079.00;;;20.20
19644;BMP180;9970;-36.854;174.870;2023-04-12T04:38:31;100080.00;;;20.20
19644;BMP180;9970;-36.854;174.870;2023-04-12T04:41:04;100081.00;;;20.20
19644;BMP180;9970;-36.854;174.870;2023-04-12T04:43:39;100100.00;;;20.10
19644;BMP180;9970;-36.854;174.870;2023-04-12T04:46:12;100098.00;;;20.10
19644;BMP180;9970;-36.854;174.870;2023-04-12T04:48:46;100096.00;;;20.10
19644;BMP180;9970;-36.854;174.870;2023-04-12T04:51:19;100088.00;;;20.10
19644;BMP180;9970;-36.854;174.870;2023-04-12T04:53:52;100083.00;;;20.00
19644;BMP180;9970;-36.854;174.870;2023-04-12T04:56:25;100085.00;;;20.00
19644;BMP180;9970;-36.854;174.870;2023-04-12T04:58:59;100091.00;;;20.00
19644;BMP180;9970;-36.854;174.870;2023-04-12T05:01:32;100093.00;;;20.00
19644;BMP180;9970;-36.854;174.870;2023-04-12T05:04:07;100090.00;;;20.00
19644;BMP180;9970;-36.854;174.870;2023-04-12T05:06:40;100098.00;;;20.00
19644;BMP180;9970;-36.854;174.870;2023-04-12T05:09:13;100092.00;;;19.90
19644;BMP180;9970;-36.854;174.870;2023-04-12T05:11:47;100094.00;;;19.90
19644;BMP180;9970;-36.854;174.870;2023-04-12T05:14:20;100103.00;;;19.90
19644;BMP180;9970;-36.854;174.870;2023-04-12T05:16:54;100101.00;;;19.90
19644;BMP180;9970;-36.854;174.870;2023-04-12T05:19:27;100104.00;;;19.90
19644;BMP180;9970;-36.854;174.870;2023-04-12T05:22:00;100102.00;;;19.80
19644;BMP180;9970;-36.854;174.870;2023-04-12T05:24:33;100107.00;;;19.80
19644;BMP180;9970;-36.854;174.870;2023-04-12T05:27:07;100118.00;;;19.80
19644;BMP180;9970;-36.854;174.870;2023-04-12T05:32:31;100115.00;;;19.80
19644;BMP180;9970;-36.854;174.870;2023-04-12T05:35:04;100119.00;;;19.80
19644;BMP180;9970;-36.854;174.870;2023-04-12T05:37:37;100126.00;;;19.80
19644;BMP180;9970;-36.854;174.870;2023-04-12T05:40:11;100128.00;;;19.70
19644;BMP180;9970;-36.854;174.870;2023-04-12T05:42:44;100129.00;;;19.70
19644;BMP180;9970;-36.854;174.870;2023-04-12T05:45:16;100131.00;;;19.70
19644;BMP180;9970;-36.854;174.870;2023-04-12T05:47:49;100133.00;;;19.70
19644;BMP180;9970;-36.854;174.870;2023-04-12T05:50:23;100139.00;;;19.70
19644;BMP180;9970;-36.854;174.870;2023-04-12T05:52:56;100144.00;;;19.60
19644;BMP180;9970;-36.854;174.870;2023-04-12T05:55:28;100144.00;;;19.60
19644;BMP180;9970;-36.854;174.870;2023-04-12T05:58:02;100153.00;;;19.60
19644;BMP180;9970;-36.854;174.870;2023-04-12T06:00:38;100156.00;;;19.60
19644;BMP180;9970;-36.854;174.870;2023-04-12T06:03:12;100159.00;;;19.50
19644;BMP180;9970;-36.854;174.870;2023-04-12T06:05:45;100161.00;;;19.50
19644;BMP180;9970;-36.854;174.870;2023-04-12T06:08:18;100160.00;;;19.50
19644;BMP180;9970;-36.854;174.870;2023-04-12T06:10:52;100166.00;;;19.50
19644;BMP180;9970;-36.854;174.870;2023-04-12T06:13:25;100171.00;;;19.50
19644;BMP180;9970;-36.854;174.870;2023-04-12T06:15:58;100179.00;;;19.50
19644;BMP180;9970;-36.854;174.870;2023-04-12T06:18:31;100177.00;;;19.50
19644;BMP180;9970;-36.854;174.870;2023-04-12T06:21:04;100183.00;;;19.50
19644;BMP180;9970;-36.854;174.870;2023-04-12T06:23:37;100188.00;;;19.40
19644;BMP180;9970;-36.854;174.870;2023-04-12T06:26:10;100181.00;;;19.40
19644;BMP180;9970;-36.854;174.870;2023-04-12T06:28:45;100191.00;;;19.40
19644;BMP180;9970;-36.854;174.870;2023-04-12T06:31:19;100192.00;;;19.40
19644;BMP180;9970;-36.854;174.870;2023-04-12T06:33:52;100204.00;;;19.40
19644;BMP180;9970;-36.854;174.870;2023-04-12T06:36:25;100205.00;;;19.40
19644;BMP180;9970;-36.854;174.870;2023-04-12T06:38:58;100201.00;;;19.40
19644;BMP180;9970;-36.854;174.870;2023-04-12T06:41:31;100201.00;;;19.40
19644;BMP180;9970;-36.854;174.870;2023-04-12T06:44:04;100206.00;;;19.30
19644;BMP180;9970;-36.854;174.870;2023-04-12T06:46:37;100216.00;;;19.30
19644;BMP180;9970;-36.854;174.870;2023-04-12T06:49:11;100219.00;;;19.30
19644;BMP180;9970;-36.854;174.870;2023-04-12T06:51:44;100223.00;;;19.30
19644;BMP180;9970;-36.854;174.870;2023-04-12T06:54:17;100224.00;;;19.30
19644;BMP180;9970;-36.854;174.870;2023-04-12T06:56:50;100226.00;;;19.30
19644;BMP180;9970;-36.854;174.870;2023-04-12T06:59:24;100225.00;;;19.30
19644;BMP180;9970;-36.854;174.870;2023-04-12T07:01:56;100239.00;;;19.30
19644;BMP180;9970;-36.854;174.870;2023-04-12T07:04:30;100245.00;;;19.20
19644;BMP180;9970;-36.854;174.870;2023-04-12T07:07:03;100237.00;;;19.20
19644;BMP180;9970;-36.854;174.870;2023-04-12T07:09:36;100248.00;;;19.20
19644;BMP180;9970;-36.854;174.870;2023-04-12T07:12:11;100236.00;;;19.20
19644;BMP180;9970;-36.854;174.870;2023-04-12T07:14:49;100244.00;;;19.20
19644;BMP180;9970;-36.854;174.870;2023-04-12T07:17:22;100257.00;;;19.20
19644;BMP180;9970;-36.854;174.870;2023-04-12T07:19:57;100258.00;;;19.10
19644;BMP180;9970;-36.854;174.870;2023-04-12T07:22:30;100250.00;;;19.10
19644;BMP180;9970;-36.854;174.870;2023-04-12T07:25:04;100245.00;;;19.10
19644;BMP180;9970;-36.854;174.870;2023-04-12T07:27:38;100250.00;;;19.10
19644;BMP180;9970;-36.854;174.870;2023-04-12T07:30:13;100253.00;;;19.10
19644;BMP180;9970;-36.854;174.870;2023-04-12T07:32:46;100255.00;;;19.10
19644;BMP180;9970;-36.854;174.870;2023-04-12T07:35:20;100261.00;;;19.10
19644;BMP180;9970;-36.854;174.870;2023-04-12T07:37:53;100267.00;;;19.10
19644;BMP180;9970;-36.854;174.870;2023-04-12T07:40:27;100268.00;;;19.10
19644;BMP180;9970;-36.854;174.870;2023-04-12T07:43:00;100273.00;;;19.00
19644;BMP180;9970;-36.854;174.870;2023-04-12T07:45:34;100271.00;;;19.00
19644;BMP180;9970;-36.854;174.870;2023-04-12T07:48:07;100268.00;;;19.00
19644;BMP180;9970;-36.854;174.870;2023-04-12T07:50:42;100267.00;;;19.00
19644;BMP180;9970;-36.854;174.870;2023-04-12T07:53:26;100268.00;;;18.90
19644;BMP180;9970;-36.854;174.870;2023-04-12T07:55:58;100270.00;;;18.90
19644;BMP180;9970;-36.854;174.870;2023-04-12T07:58:33;100275.00;;;18.90
19644;BMP180;9970;-36.854;174.870;2023-04-12T08:01:06;100286.00;;;18.90
19644;BMP180;9970;-36.854;174.870;2023-04-12T08:03:40;100283.00;;;18.90
19644;BMP180;9970;-36.854;174.870;2023-04-12T08:06:13;100287.00;;;18.80
19644;BMP180;9970;-36.854;174.870;2023-04-12T08:08:47;100279.00;;;18.80
19644;BMP180;9970;-36.854;174.870;2023-04-12T08:11:20;100284.00;;;18.80
19644;BMP180;9970;-36.854;174.870;2023-04-12T08:13:53;100278.00;;;18.80
19644;BMP180;9970;-36.854;174.870;2023-04-12T08:16:26;100284.00;;;18.70
19644;BMP180;9970;-36.854;174.870;2023-04-12T08:19:00;100285.00;;;18.70
19644;BMP180;9970;-36.854;174.870;2023-04-12T08:21:33;100278.00;;;18.70
19644;BMP180;9970;-36.854;174.870;2023-04-12T08:24:06;100291.00;;;18.70
19644;BMP180;9970;-36.854;174.870;2023-04-12T08:26:39;100294.00;;;18.70
19644;BMP180;9970;-36.854;174.870;2023-04-12T08:29:12;100293.00;;;18.70
19644;BMP180;9970;-36.854;174.870;2023-04-12T08:31:47;100289.00;;;18.70
19644;BMP180;9970;-36.854;174.870;2023-04-12T08:34:20;100298.00;;;18.60
19644;BMP180;9970;-36.854;174.870;2023-04-12T08:36:54;100295.00;;;18.60
19644;BMP180;9970;-36.854;174.870;2023-04-12T08:39:29;100293.00;;;18.60
19644;BMP180;9970;-36.854;174.870;2023-04-12T08:42:03;100294.00;;;18.60
19644;BMP180;9970;-36.854;174.870;2023-04-12T08:44:38;100286.00;;;18.60
19644;BMP180;9970;-36.854;174.870;2023-04-12T08:47:11;100290.00;;;18.60
19644;BMP180;9970;-36.854;174.870;2023-04-12T08:49:44;100294.00;;;18.50
19644;BMP180;9970;-36.854;174.870;2023-04-12T08:52:17;100302.00;;;18.50
19644;BMP180;9970;-36.854;174.870;2023-04-12T08:54:50;100302.00;;;18.50
19644;BMP180;9970;-36.854;174.870;2023-04-12T08:57:23;100303.00;;;18.50
19644;BMP180;9970;-36.854;174.870;2023-04-12T08:59:59;100304.00;;;18.50
19644;BMP180;9970;-36.854;174.870;2023-04-12T09:02:33;100304.00;;;18.50
19644;BMP180;9970;-36.854;174.870;2023-04-12T09:05:07;100315.00;;;18.40
19644;BMP180;9970;-36.854;174.870;2023-04-12T09:07:41;100312.00;;;18.40
19644;BMP180;9970;-36.854;174.870;2023-04-12T09:10:28;100318.00;;;18.40
19644;BMP180;9970;-36.854;174.870;2023-04-12T09:12:49;100321.00;;;18.40
19644;BMP180;9970;-36.854;174.870;2023-04-12T09:15:22;100320.00;;;18.40
19644;BMP180;9970;-36.854;174.870;2023-04-12T09:18:11;100334.00;;;18.40
19644;BMP180;9970;-36.854;174.870;2023-04-12T09:20:39;100320.00;;;18.40
19644;BMP180;9970;-36.854;174.870;2023-04-12T09:23:22;100321.00;;;18.40
19644;BMP180;9970;-36.854;174.870;2023-04-12T09:25:55;100322.00;;;18.30
19644;BMP180;9970;-36.854;174.870;2023-04-12T09:28:28;100323.00;;;18.30
19644;BMP180;9970;-36.854;174.870;2023-04-12T09:31:02;100332.00;;;18.30
19644;BMP180;9970;-36.854;174.870;2023-04-12T09:33:38;100335.00;;;18.30
19644;BMP180;9970;-36.854;174.870;2023-04-12T09:36:11;100336.00;;;18.30
19644;BMP180;9970;-36.854;174.870;2023-04-12T09:39:01;100336.00;;;18.30
19644;BMP180;9970;-36.854;174.870;2023-04-12T09:41:37;100334.00;;;18.20
19644;BMP180;9970;-36.854;174.870;2023-04-12T09:44:26;100345.00;;;18.20
19644;BMP180;9970;-36.854;174.870;2023-04-12T09:46:49;100346.00;;;18.20
19644;BMP180;9970;-36.854;174.870;2023-04-12T09:49:35;100344.00;;;18.20
19644;BMP180;9970;-36.854;174.870;2023-04-12T09:52:10;100343.00;;;18.10
19644;BMP180;9970;-36.854;174.870;2023-04-12T09:54:47;100346.00;;;18.10
19644;BMP180;9970;-36.854;174.870;2023-04-12T09:57:20;100348.00;;;18.10
19644;BMP180;9970;-36.854;174.870;2023-04-12T09:59:55;100349.00;;;18.10
19644;BMP180;9970;-36.854;174.870;2023-04-12T10:02:29;100350.00;;;18.10
19644;BMP180;9970;-36.854;174.870;2023-04-12T10:05:02;100359.00;;;18.10
19644;BMP180;9970;-36.854;174.870;2023-04-12T10:07:36;100356.00;;;18.00
19644;BMP180;9970;-36.854;174.870;2023-04-12T10:10:12;100359.00;;;18.00
19644;BMP180;9970;-36.854;174.870;2023-04-12T10:12:47;100359.00;;;18.00
19644;BMP180;9970;-36.854;174.870;2023-04-12T10:15:20;100363.00;;;18.00
19644;BMP180;9970;-36.854;174.870;2023-04-12T10:17:54;100354.00;;;18.00
19644;BMP180;9970;-36.854;174.870;2023-04-12T10:20:27;100350.00;;;18.00
19644;BMP180;9970;-36.854;174.870;2023-04-12T10:23:00;100353.00;;;18.00
19644;BMP180;9970;-36.854;174.870;2023-04-12T10:25:33;100354.00;;;18.00
19644;BMP180;9970;-36.854;174.870;2023-04-12T10:28:20;100363.00;;;18.00
19644;BMP180;9970;-36.854;174.870;2023-04-12T10:30:59;100362.00;;;18.00
19644;BMP180;9970;-36.854;174.870;2023-04-12T10:33:30;100367.00;;;18.00
19644;BMP180;9970;-36.854;174.870;2023-04-12T10:36:03;100359.00;;;17.90
19644;BMP180;9970;-36.854;174.870;2023-04-12T10:38:47;100360.00;;;17.90
19644;BMP180;9970;-36.854;174.870;2023-04-12T10:41:20;100370.00;;;17.90
19644;BMP180;9970;-36.854;174.870;2023-04-12T10:49:14;100362.00;;;17.90
19644;BMP180;9970;-36.854;174.870;2023-04-12T10:54:35;100376.00;;;17.90
19644;BMP180;9970;-36.854;174.870;2023-04-12T10:59:52;100368.00;;;17.90
19644;BMP180;9970;-36.854;174.870;2023-04-12T11:02:27;100378.00;;;17.90
19644;BMP180;9970;-36.854;174.870;2023-04-12T11:05:08;100368.00;;;17.90
19644;BMP180;9970;-36.854;174.870;2023-04-12T11:07:41;100367.00;;;17.90
19644;BMP180;9970;-36.854;174.870;2023-04-12T11:10:16;100380.00;;;17.90
19644;BMP180;9970;-36.854;174.870;2023-04-12T11:12:54;100373.00;;;17.90
19644;BMP180;9970;-36.854;174.870;2023-04-12T11:15:27;100376.00;;;17.90
19644;BMP180;9970;-36.854;174.870;2023-04-12T11:18:01;100386.00;;;17.90
19644;BMP180;9970;-36.854;174.870;2023-04-12T11:20:37;100384.00;;;17.80
19644;BMP180;9970;-36.854;174.870;2023-04-12T11:23:15;100389.00;;;17.80
19644;BMP180;9970;-36.854;174.870;2023-04-12T11:25:52;100386.00;;;17.80
19644;BMP180;9970;-36.854;174.870;2023-04-12T11:28:25;100383.00;;;17.80
19644;BMP180;9970;-36.854;174.870;2023-04-12T11:30:59;100392.00;;;17.80
19644;BMP180;9970;-36.854;174.870;2023-04-12T11:33:36;100390.00;;;17.80
19644;BMP180;9970;-36.854;174.870;2023-04-12T11:36:10;100391.00;;;17.80
19644;BMP180;9970;-36.854;174.870;2023-04-12T11:38:45;100393.00;;;17.80
19644;BMP180;9970;-36.854;174.870;2023-04-12T11:41:18;100381.00;;;17.80
19644;BMP180;9970;-36.854;174.870;2023-04-12T11:43:51;100398.00;;;17.80
19644;BMP180;9970;-36.854;174.870;2023-04-12T11:46:25;100392.00;;;17.80
19644;BMP180;9970;-36.854;174.870;2023-04-12T11:48:59;100405.00;;;17.80
19644;BMP180;9970;-36.854;174.870;2023-04-12T11:51:32;100400.00;;;17.80
19644;BMP180;9970;-36.854;174.870;2023-04-12T11:54:06;100405.00;;;17.80
19644;BMP180;9970;-36.854;174.870;2023-04-12T11:56:42;100411.00;;;17.80
19644;BMP180;9970;-36.854;174.870;2023-04-12T11:59:15;100412.00;;;17.80
19644;BMP180;9970;-36.854;174.870;2023-04-12T12:01:51;100408.00;;;17.80
19644;BMP180;9970;-36.854;174.870;2023-04-12T12:04:24;100406.00;;;17.80
19644;BMP180;9970;-36.854;174.870;2023-04-12T12:06:58;100398.00;;;17.80
19644;BMP180;9970;-36.854;174.870;2023-04-12T12:09:31;100401.00;;;17.80
19644;BMP180;9970;-36.854;174.870;2023-04-12T12:12:06;100398.00;;;17.80
19644;BMP180;9970;-36.854;174.870;2023-04-12T12:14:39;100398.00;;;17.70
19644;BMP180;9970;-36.854;174.870;2023-04-12T12:17:16;100395.00;;;17.70
19644;BMP180;9970;-36.854;174.870;2023-04-12T12:19:49;100399.00;;;17.70
19644;BMP180;9970;-36.854;174.870;2023-04-12T12:22:22;100401.00;;;17.70
19644;BMP180;9970;-36.854;174.870;2023-04-12T12:24:59;100402.00;;;17.70
19644;BMP180;9970;-36.854;174.870;2023-04-12T12:27:36;100402.00;;;17.70
19644;BMP180;9970;-36.854;174.870;2023-04-12T12:30:11;100402.00;;;17.70
19644;BMP180;9970;-36.854;174.870;2023-04-12T12:32:44;100406.00;;;17.70
19644;BMP180;9970;-36.854;174.870;2023-04-12T12:35:18;100410.00;;;17.70
19644;BMP180;9970;-36.854;174.870;2023-04-12T12:37:52;100400.00;;;17.60
19644;BMP180;9970;-36.854;174.870;2023-04-12T12:40:29;100402.00;;;17.60
19644;BMP180;9970;-36.854;174.870;2023-04-12T12:43:03;100402.00;;;17.60
19644;BMP180;9970;-36.854;174.870;2023-04-12T12:45:37;100400.00;;;17.60
19644;BMP180;9970;-36.854;174.870;2023-04-12T12:48:10;100403.00;;;17.60
19644;BMP180;9970;-36.854;174.870;2023-04-12T12:50:48;100410.00;;;17.60
19644;BMP180;9970;-36.854;174.870;2023-04-12T12:53:22;100417.00;;;17.60
19644;BMP180;9970;-36.854;174.870;2023-04-12T12:55:55;100418.00;;;17.50
19644;BMP180;9970;-36.854;174.870;2023-04-12T12:58:28;100421.00;;;17.50
19644;BMP180;9970;-36.854;174.870;2023-04-12T13:01:01;100420.00;;;17.50
19644;BMP180;9970;-36.854;174.870;2023-04-12T13:03:34;100418.00;;;17.50
19644;BMP180;9970;-36.854;174.870;2023-04-12T13:06:08;100419.00;;;17.50
19644;BMP180;9970;-36.854;174.870;2023-04-12T13:08:41;100422.00;;;17.50
19644;BMP180;9970;-36.854;174.870;2023-04-12T13:11:14;100410.00;;;17.50
19644;BMP180;9970;-36.854;174.870;2023-04-12T13:13:52;100411.00;;;17.50
19644;BMP180;9970;-36.854;174.870;2023-04-12T13:16:25;100412.00;;;17.50
19644;BMP180;9970;-36.854;174.870;2023-04-12T13:18:58;100411.00;;;17.40
19644;BMP180;9970;-36.854;174.870;2023-04-12T13:21:32;100415.00;;;17.40
19644;BMP180;9970;-36.854;174.870;2023-04-12T13:24:06;100429.00;;;17.40
19644;BMP180;9970;-36.854;174.870;2023-04-12T13:26:39;100428.00;;;17.40
19644;BMP180;9970;-36.854;174.870;2023-04-12T13:29:13;100422.00;;;17.40
19644;BMP180;9970;-36.854;174.870;2023-04-12T13:31:46;100426.00;;;17.40
19644;BMP180;9970;-36.854;174.870;2023-04-12T13:34:21;100431.00;;;17.30
19644;BMP180;9970;-36.854;174.870;2023-04-12T13:36:53;100438.00;;;17.30
19644;BMP180;9970;-36.854;174.870;2023-04-12T13:39:27;100439.00;;;17.30
19644;BMP180;9970;-36.854;174.870;2023-04-12T13:42:03;100436.00;;;17.30
19644;BMP180;9970;-36.854;174.870;2023-04-12T13:44:35;100439.00;;;17.30
19644;BMP180;9970;-36.854;174.870;2023-04-12T13:47:08;100437.00;;;17.30
19644;BMP180;9970;-36.854;174.870;2023-04-12T13:49:41;100442.00;;;17.30
19644;BMP180;9970;-36.854;174.870;2023-04-12T13:52:14;100459.00;;;17.30
19644;BMP180;9970;-36.854;174.870;2023-04-12T13:54:46;100450.00;;;17.30
19644;BMP180;9970;-36.854;174.870;2023-04-12T13:57:21;100452.00;;;17.30
19644;BMP180;9970;-36.854;174.870;2023-04-12T13:59:54;100456.00;;;17.30
19644;BMP180;9970;-36.854;174.870;2023-04-12T14:02:27;100445.00;;;17.30
19644;BMP180;9970;-36.854;174.870;2023-04-12T14:05:01;100439.00;;;17.30
19644;BMP180;9970;-36.854;174.870;2023-04-12T14:07:34;100439.00;;;17.30
19644;BMP180;9970;-36.854;174.870;2023-04-12T14:10:08;100441.00;;;17.30
19644;BMP180;9970;-36.854;174.870;2023-04-12T14:12:41;100448.00;;;17.30
19644;BMP180;9970;-36.854;174.870;2023-04-12T14:15:14;100460.00;;;17.30
19644;BMP180;9970;-36.854;174.870;2023-04-12T14:17:47;100460.00;;;17.30
19644;BMP180;9970;-36.854;174.870;2023-04-12T14:20:20;100461.00;;;17.30
19644;BMP180;9970;-36.854;174.870;2023-04-12T14:22:54;100456.00;;;17.30
19644;BMP180;9970;-36.854;174.870;2023-04-12T14:25:27;100454.00;;;17.30
19644;BMP180;9970;-36.854;174.870;2023-04-12T14:28:00;100453.00;;;17.30
19644;BMP180;9970;-36.854;174.870;2023-04-12T14:30:36;100457.00;;;17.30
19644;BMP180;9970;-36.854;174.870;2023-04-12T14:33:09;100461.00;;;17.30